sensor_id;sensor_type;location;lat;lon;timestamp;P1;durP1;ratioP1;P2;durP2;ratioP2
26486;SDS011;14425;56.136;40.360;2022-09-30T00:01:07;19.35;;;9.95;;
26486;SDS011;14425;56.136;40.360;2022-09-30T00:03:33;14.82;;;9.13;;
26486;SDS011;14425;56.136;40.360;2022-09-30T00:06:01;16.20;;;9.65;;
26486;SDS011;14425;56.136;40.360;2022-09-30T00:08:29;16.23;;;9.05;;
26486;SDS011;14425;56.136;40.360;2022-09-30T00:11:02;13.57;;;8.07;;
26486;SDS011;14425;56.136;40.360;2022-09-30T00:13:32;16.60;;;9.35;;
26486;SDS011;14425;56.136;40.360;2022-09-30T00:15:59;14.52;;;9.07;;
26486;SDS011;14425;56.136;40.360;2022-09-30T00:18:25;16.65;;;9.32;;
26486;SDS011;14425;56.136;40.360;2022-09-30T00:20:52;14.07;;;9.15;;
26486;SDS011;14425;56.136;40.360;2022-09-30T00:23:18;14.73;;;9.48;;
26486;SDS011;14425;56.136;40.360;2022-09-30T00:25:44;15.27;;;9.20;;
26486;SDS011;14425;56.136;40.360;2022-09-30T00:28:09;13.68;;;7.97;;
26486;SDS011;14425;56.136;40.360;2022-09-30T00:30:35;14.05;;;8.07;;
26486;SDS011;14425;56.136;40.360;2022-09-30T00:33:00;12.45;;;8.35;;
26486;SDS011;14425;56.136;40.360;2022-09-30T00:35:26;18.33;;;9.57;;
26486;SDS011;14425;56.136;40.360;2022-09-30T00:37:51;14.45;;;8.90;;
26486;SDS011;14425;56.136;40.360;2022-09-30T00:40:18;12.82;;;7.80;;
26486;SDS011;14425;56.136;40.360;2022-09-30T00:42:44;12.88;;;7.88;;
26486;SDS011;14425;56.136;40.360;2022-09-30T00:45:10;13.35;;;8.27;;
26486;SDS011;14425;56.136;40.360;2022-09-30T00:53:20;13.15;;;8.43;;
26486;SDS011;14425;56.136;40.360;2022-09-30T00:56:06;17.05;;;9.95;;
26486;SDS011;14425;56.136;40.360;2022-09-30T01:01:13;17.08;;;10.25;;
26486;SDS011;14425;56.136;40.360;2022-09-30T01:03:43;14.95;;;9.82;;
26486;SDS011;14425;56.136;40.360;2022-09-30T01:06:14;14.13;;;8.95;;
26486;SDS011;14425;56.136;40.360;2022-09-30T01:08:40;16.23;;;10.07;;
26486;SDS011;14425;56.136;40.360;2022-09-30T01:11:06;24.77;;;11.25;;
26486;SDS011;14425;56.136;40.360;2022-09-30T01:13:31;17.67;;;9.88;;
26486;SDS011;14425;56.136;40.360;2022-09-30T01:16:03;17.20;;;9.80;;
26486;SDS011;14425;56.136;40.360;2022-09-30T01:30:55;19.63;;;11.75;;
26486;SDS011;14425;56.136;40.360;2022-09-30T01:41:51;20.73;;;11.70;;
26486;SDS011;14425;56.136;40.360;2022-09-30T01:44:32;21.83;;;9.52;;
26486;SDS011;14425;56.136;40.360;2022-09-30T01:47:12;19.95;;;10.93;;
26486;SDS011;14425;56.136;40.360;2022-09-30T01:50:04;18.08;;;10.82;;
26486;SDS011;14425;56.136;40.360;2022-09-30T01:52:40;16.95;;;11.02;;
26486;SDS011;14425;56.136;40.360;2022-09-30T01:55:16;16.58;;;10.43;;
26486;SDS011;14425;56.136;40.360;2022-09-30T02:00:23;21.48;;;12.13;;
26486;SDS011;14425;56.136;40.360;2022-09-30T02:03:00;25.75;;;12.38;;
26486;SDS011;14425;56.136;40.360;2022-09-30T02:13:18;30.55;;;14.38;;
26486;SDS011;14425;56.136;40.360;2022-09-30T02:15:53;26.55;;;13.90;;
26486;SDS011;14425;56.136;40.360;2022-09-30T02:18:27;32.03;;;15.48;;
26486;SDS011;14425;56.136;40.360;2022-09-30T02:21:03;27.45;;;13.82;;
26486;SDS011;14425;56.136;40.360;2022-09-30T02:23:32;29.55;;;14.98;;
26486;SDS011;14425;56.136;40.360;2022-09-30T02:26:11;33.65;;;16.63;;
26486;SDS011;14425;56.136;40.360;2022-09-30T02:28:41;31.65;;;16.83;;
26486;SDS011;14425;56.136;40.360;2022-09-30T02:31:14;32.75;;;16.05;;
26486;SDS011;14425;56.136;40.360;2022-09-30T02:34:26;41.10;;;17.17;;
26486;SDS011;14425;56.136;40.360;2022-09-30T02:36:37;33.78;;;15.95;;
26486;SDS011;14425;56.136;40.360;2022-09-30T02:39:09;33.95;;;16.00;;
26486;SDS011;14425;56.136;40.360;2022-09-30T02:41:48;35.75;;;17.45;;
26486;SDS011;14425;56.136;40.360;2022-09-30T02:44:19;30.27;;;15.00;;
26486;SDS011;14425;56.136;40.360;2022-09-30T02:49:39;38.00;;;17.40;;
26486;SDS011;14425;56.136;40.360;2022-09-30T02:52:25;34.47;;;17.35;;
26486;SDS011;14425;56.136;40.360;2022-09-30T02:55:00;25.48;;;13.60;;
26486;SDS011;14425;56.136;40.360;2022-09-30T03:00:24;36.17;;;17.08;;
26486;SDS011;14425;56.136;40.360;2022-09-30T03:02:52;37.45;;;17.50;;
26486;SDS011;14425;56.136;40.360;2022-09-30T03:05:22;38.83;;;19.52;;
26486;SDS011;14425;56.136;40.360;2022-09-30T03:07:48;39.25;;;16.55;;
26486;SDS011;14425;56.136;40.360;2022-09-30T03:10:15;36.38;;;16.02;;
26486;SDS011;14425;56.136;40.360;2022-09-30T03:13:19;37.35;;;17.33;;
26486;SDS011;14425;56.136;40.360;2022-09-30T03:28:13;40.10;;;18.50;;
26486;SDS011;14425;56.136;40.360;2022-09-30T03:30:38;39.63;;;18.50;;
26486;SDS011;14425;56.136;40.360;2022-09-30T03:33:15;43.65;;;18.27;;
26486;SDS011;14425;56.136;40.360;2022-09-30T03:43:45;47.67;;;19.77;;
26486;SDS011;14425;56.136;40.360;2022-09-30T03:46:25;44.00;;;18.67;;
26486;SDS011;14425;56.136;40.360;2022-09-30T03:48:56;48.35;;;19.35;;
26486;SDS011;14425;56.136;40.360;2022-09-30T03:51:26;40.40;;;18.20;;
26486;SDS011;14425;56.136;40.360;2022-09-30T03:53:54;46.47;;;21.95;;
26486;SDS011;14425;56.136;40.360;2022-09-30T03:56:24;46.42;;;20.13;;
26486;SDS011;14425;56.136;40.360;2022-09-30T03:58:52;43.33;;;19.05;;
26486;SDS011;14425;56.136;40.360;2022-09-30T04:01:18;47.00;;;20.35;;
26486;SDS011;14425;56.136;40.360;2022-09-30T04:03:48;47.03;;;20.75;;
26486;SDS011;14425;56.136;40.360;2022-09-30T04:06:22;52.00;;;20.33;;
26486;SDS011;14425;56.136;40.360;2022-09-30T04:08:49;50.22;;;20.92;;
26486;SDS011;14425;56.136;40.360;2022-09-30T04:11:15;46.55;;;20.55;;
26486;SDS011;14425;56.136;40.360;2022-09-30T04:13:42;45.30;;;19.23;;
26486;SDS011;14425;56.136;40.360;2022-09-30T04:16:07;46.50;;;20.25;;
26486;SDS011;14425;56.136;40.360;2022-09-30T04:18:36;51.03;;;19.98;;
26486;SDS011;14425;56.136;40.360;2022-09-30T04:21:06;42.30;;;18.77;;
26486;SDS011;14425;56.136;40.360;2022-09-30T04:23:37;45.55;;;20.25;;
26486;SDS011;14425;56.136;40.360;2022-09-30T04:26:04;39.35;;;18.60;;
26486;SDS011;14425;56.136;40.360;2022-09-30T04:28:30;44.47;;;19.80;;
26486;SDS011;14425;56.136;40.360;2022-09-30T04:31:00;38.03;;;18.50;;
26486;SDS011;14425;56.136;40.360;2022-09-30T04:33:26;40.10;;;19.40;;
26486;SDS011;14425;56.136;40.360;2022-09-30T04:35:53;43.95;;;20.30;;
26486;SDS011;14425;56.136;40.360;2022-09-30T04:38:22;40.38;;;20.52;;
26486;SDS011;14425;56.136;40.360;2022-09-30T04:40:49;39.25;;;19.20;;
26486;SDS011;14425;56.136;40.360;2022-09-30T04:43:19;48.90;;;21.13;;
26486;SDS011;14425;56.136;40.360;2022-09-30T04:45:46;40.95;;;19.08;;
26486;SDS011;14425;56.136;40.360;2022-09-30T04:48:12;41.38;;;19.80;;
26486;SDS011;14425;56.136;40.360;2022-09-30T04:50:39;42.78;;;21.33;;
26486;SDS011;14425;56.136;40.360;2022-09-30T04:53:06;43.00;;;21.15;;
26486;SDS011;14425;56.136;40.360;2022-09-30T04:55:36;43.95;;;20.40;;
26486;SDS011;14425;56.136;40.360;2022-09-30T04:58:01;41.42;;;20.00;;
26486;SDS011;14425;56.136;40.360;2022-09-30T05:00:27;43.53;;;20.70;;
26486;SDS011;14425;56.136;40.360;2022-09-30T05:02:52;37.35;;;18.92;;
26486;SDS011;14425;56.136;40.360;2022-09-30T05:05:18;40.25;;;19.77;;
26486;SDS011;14425;56.136;40.360;2022-09-30T05:07:44;41.15;;;19.50;;
26486;SDS011;14425;56.136;40.360;2022-09-30T05:10:09;34.53;;;16.60;;
26486;SDS011;14425;56.136;40.360;2022-09-30T05:12:36;43.22;;;19.95;;
26486;SDS011;14425;56.136;40.360;2022-09-30T05:15:03;39.10;;;19.45;;
26486;SDS011;14425;56.136;40.360;2022-09-30T05:17:29;38.53;;;19.50;;
26486;SDS011;14425;56.136;40.360;2022-09-30T05:19:55;40.38;;;19.27;;
26486;SDS011;14425;56.136;40.360;2022-09-30T05:22:21;34.33;;;18.08;;
26486;SDS011;14425;56.136;40.360;2022-09-30T05:24:49;33.45;;;17.50;;
26486;SDS011;14425;56.136;40.360;2022-09-30T05:27:15;39.63;;;19.85;;
26486;SDS011;14425;56.136;40.360;2022-09-30T05:29:42;36.35;;;19.20;;
26486;SDS011;14425;56.136;40.360;2022-09-30T05:32:08;34.88;;;18.77;;
26486;SDS011;14425;56.136;40.360;2022-09-30T05:34:34;30.60;;;15.88;;
26486;SDS011;14425;56.136;40.360;2022-09-30T05:36:59;36.53;;;17.77;;
26486;SDS011;14425;56.136;40.360;2022-09-30T05:39:25;32.28;;;16.98;;
26486;SDS011;14425;56.136;40.360;2022-09-30T05:41:50;30.67;;;17.00;;
26486;SDS011;14425;56.136;40.360;2022-09-30T05:44:16;32.05;;;17.38;;
26486;SDS011;14425;56.136;40.360;2022-09-30T05:46:42;42.00;;;18.10;;
26486;SDS011;14425;56.136;40.360;2022-09-30T05:49:07;34.35;;;17.85;;
26486;SDS011;14425;56.136;40.360;2022-09-30T05:51:33;35.70;;;16.65;;
26486;SDS011;14425;56.136;40.360;2022-09-30T05:53:58;37.40;;;16.77;;
26486;SDS011;14425;56.136;40.360;2022-09-30T05:56:24;28.73;;;15.23;;
26486;SDS011;14425;56.136;40.360;2022-09-30T05:58:49;22.90;;;13.23;;
26486;SDS011;14425;56.136;40.360;2022-09-30T06:01:15;27.02;;;12.77;;
26486;SDS011;14425;56.136;40.360;2022-09-30T06:03:41;28.15;;;14.20;;
26486;SDS011;14425;56.136;40.360;2022-09-30T06:06:08;20.20;;;11.65;;
26486;SDS011;14425;56.136;40.360;2022-09-30T06:08:34;26.55;;;13.77;;
26486;SDS011;14425;56.136;40.360;2022-09-30T06:11:00;22.98;;;12.45;;
26486;SDS011;14425;56.136;40.360;2022-09-30T06:13:26;31.17;;;15.30;;
26486;SDS011;14425;56.136;40.360;2022-09-30T06:15:59;23.67;;;13.18;;
26486;SDS011;14425;56.136;40.360;2022-09-30T06:18:25;25.52;;;13.70;;
26486;SDS011;14425;56.136;40.360;2022-09-30T06:20:55;26.13;;;14.60;;
26486;SDS011;14425;56.136;40.360;2022-09-30T06:23:27;26.45;;;14.73;;
26486;SDS011;14425;56.136;40.360;2022-09-30T06:25:53;29.85;;;16.15;;
26486;SDS011;14425;56.136;40.360;2022-09-30T06:28:19;29.33;;;14.70;;
26486;SDS011;14425;56.136;40.360;2022-09-30T06:30:45;29.67;;;14.45;;
26486;SDS011;14425;56.136;40.360;2022-09-30T06:33:11;32.03;;;14.90;;
26486;SDS011;14425;56.136;40.360;2022-09-30T06:35:38;29.17;;;13.80;;
26486;SDS011;14425;56.136;40.360;2022-09-30T06:38:06;30.42;;;13.98;;
26486;SDS011;14425;56.136;40.360;2022-09-30T06:40:32;29.75;;;15.73;;
26486;SDS011;14425;56.136;40.360;2022-09-30T06:42:58;28.13;;;16.15;;
26486;SDS011;14425;56.136;40.360;2022-09-30T06:45:24;30.77;;;16.48;;
26486;SDS011;14425;56.136;40.360;2022-09-30T06:47:50;27.42;;;15.80;;
26486;SDS011;14425;56.136;40.360;2022-09-30T06:50:20;31.48;;;16.17;;
26486;SDS011;14425;56.136;40.360;2022-09-30T06:52:47;37.78;;;15.50;;
26486;SDS011;14425;56.136;40.360;2022-09-30T06:55:12;25.52;;;14.27;;
26486;SDS011;14425;56.136;40.360;2022-09-30T06:57:39;34.03;;;14.77;;
26486;SDS011;14425;56.136;40.360;2022-09-30T07:00:06;31.55;;;14.57;;
26486;SDS011;14425;56.136;40.360;2022-09-30T07:02:32;31.40;;;14.82;;
26486;SDS011;14425;56.136;40.360;2022-09-30T07:04:58;30.92;;;15.93;;
26486;SDS011;14425;56.136;40.360;2022-09-30T07:07:25;24.58;;;15.32;;
26486;SDS011;14425;56.136;40.360;2022-09-30T07:09:51;29.20;;;14.43;;
26486;SDS011;14425;56.136;40.360;2022-09-30T07:12:16;30.40;;;14.80;;
26486;SDS011;14425;56.136;40.360;2022-09-30T07:14:42;25.52;;;14.40;;
26486;SDS011;14425;56.136;40.360;2022-09-30T07:17:07;27.77;;;13.85;;
26486;SDS011;14425;56.136;40.360;2022-09-30T07:19:33;29.75;;;14.25;;
26486;SDS011;14425;56.136;40.360;2022-09-30T07:21:59;27.30;;;13.90;;
26486;SDS011;14425;56.136;40.360;2022-09-30T07:24:44;23.60;;;13.88;;
26486;SDS011;14425;56.136;40.360;2022-09-30T07:27:10;24.38;;;14.52;;
26486;SDS011;14425;56.136;40.360;2022-09-30T07:29:38;24.13;;;12.77;;
26486;SDS011;14425;56.136;40.360;2022-09-30T07:32:08;26.92;;;14.05;;
26486;SDS011;14425;56.136;40.360;2022-09-30T07:34:34;24.67;;;13.55;;
26486;SDS011;14425;56.136;40.360;2022-09-30T07:37:00;24.25;;;14.13;;
26486;SDS011;14425;56.136;40.360;2022-09-30T07:39:28;22.80;;;13.38;;
26486;SDS011;14425;56.136;40.360;2022-09-30T07:41:54;29.38;;;14.88;;
26486;SDS011;14425;56.136;40.360;2022-09-30T07:44:19;34.60;;;13.80;;
26486;SDS011;14425;56.136;40.360;2022-09-30T07:46:45;25.73;;;12.60;;
26486;SDS011;14425;56.136;40.360;2022-09-30T07:49:11;19.42;;;11.95;;
26486;SDS011;14425;56.136;40.360;2022-09-30T07:51:40;25.85;;;13.77;;
26486;SDS011;14425;56.136;40.360;2022-09-30T07:54:10;22.42;;;12.38;;
26486;SDS011;14425;56.136;40.360;2022-09-30T07:56:41;21.42;;;12.98;;
26486;SDS011;14425;56.136;40.360;2022-09-30T07:59:08;22.45;;;13.50;;
26486;SDS011;14425;56.136;40.360;2022-09-30T08:01:35;25.88;;;13.75;;
26486;SDS011;14425;56.136;40.360;2022-09-30T08:04:02;27.30;;;12.25;;
26486;SDS011;14425;56.136;40.360;2022-09-30T08:06:30;21.02;;;11.95;;
26486;SDS011;14425;56.136;40.360;2022-09-30T08:08:56;17.30;;;10.30;;
26486;SDS011;14425;56.136;40.360;2022-09-30T08:11:23;18.67;;;10.57;;
26486;SDS011;14425;56.136;40.360;2022-09-30T08:13:53;25.48;;;11.43;;
26486;SDS011;14425;56.136;40.360;2022-09-30T08:16:20;27.67;;;11.50;;
26486;SDS011;14425;56.136;40.360;2022-09-30T08:18:46;23.48;;;10.55;;
26486;SDS011;14425;56.136;40.360;2022-09-30T08:21:12;20.00;;;12.05;;
26486;SDS011;14425;56.136;40.360;2022-09-30T08:23:38;23.67;;;11.18;;
26486;SDS011;14425;56.136;40.360;2022-09-30T08:26:05;16.42;;;10.45;;
26486;SDS011;14425;56.136;40.360;2022-09-30T08:28:34;21.50;;;10.20;;
26486;SDS011;14425;56.136;40.360;2022-09-30T08:31:07;22.77;;;12.23;;
26486;SDS011;14425;56.136;40.360;2022-09-30T08:33:33;16.67;;;9.95;;
26486;SDS011;14425;56.136;40.360;2022-09-30T08:36:05;16.20;;;9.40;;
26486;SDS011;14425;56.136;40.360;2022-09-30T08:38:33;16.08;;;10.43;;
26486;SDS011;14425;56.136;40.360;2022-09-30T08:46:27;21.40;;;9.65;;
26486;SDS011;14425;56.136;40.360;2022-09-30T08:51:49;15.10;;;9.57;;
26486;SDS011;14425;56.136;40.360;2022-09-30T08:54:18;13.52;;;8.75;;
26486;SDS011;14425;56.136;40.360;2022-09-30T08:56:47;17.92;;;9.35;;
26486;SDS011;14425;56.136;40.360;2022-09-30T09:04:38;18.40;;;9.18;;
26486;SDS011;14425;56.136;40.360;2022-09-30T09:07:07;12.20;;;8.23;;
26486;SDS011;14425;56.136;40.360;2022-09-30T09:09:49;14.25;;;8.70;;
26486;SDS011;14425;56.136;40.360;2022-09-30T09:20:53;11.88;;;7.65;;
26486;SDS011;14425;56.136;40.360;2022-09-30T09:23:22;16.70;;;7.63;;
26486;SDS011;14425;56.136;40.360;2022-09-30T09:25:48;12.30;;;7.15;;
26486;SDS011;14425;56.136;40.360;2022-09-30T09:31:13;13.60;;;7.60;;
26486;SDS011;14425;56.136;40.360;2022-09-30T09:33:41;8.82;;;7.05;;
26486;SDS011;14425;56.136;40.360;2022-09-30T09:36:25;12.13;;;7.20;;
26486;SDS011;14425;56.136;40.360;2022-09-30T09:39:14;11.85;;;7.40;;
26486;SDS011;14425;56.136;40.360;2022-09-30T09:41:59;14.57;;;7.85;;
26486;SDS011;14425;56.136;40.360;2022-09-30T09:47:03;10.95;;;7.70;;
26486;SDS011;14425;56.136;40.360;2022-09-30T09:49:59;12.85;;;8.88;;
26486;SDS011;14425;56.136;40.360;2022-09-30T09:55:12;14.95;;;9.50;;
26486;SDS011;14425;56.136;40.360;2022-09-30T09:57:40;14.68;;;9.80;;
26486;SDS011;14425;56.136;40.360;2022-09-30T10:00:07;19.00;;;10.10;;
26486;SDS011;14425;56.136;40.360;2022-09-30T10:03:03;16.30;;;9.48;;
26486;SDS011;14425;56.136;40.360;2022-09-30T10:05:33;13.82;;;9.57;;
26486;SDS011;14425;56.136;40.360;2022-09-30T10:08:14;12.73;;;8.57;;
26486;SDS011;14425;56.136;40.360;2022-09-30T10:10:48;13.32;;;8.10;;
26486;SDS011;14425;56.136;40.360;2022-09-30T10:13:23;10.75;;;7.93;;
26486;SDS011;14425;56.136;40.360;2022-09-30T10:15:51;11.55;;;7.90;;
26486;SDS011;14425;56.136;40.360;2022-09-30T10:18:28;9.23;;;7.20;;
26486;SDS011;14425;56.136;40.360;2022-09-30T10:20:58;13.07;;;7.47;;
26486;SDS011;14425;56.136;40.360;2022-09-30T10:23:39;15.38;;;7.78;;
26486;SDS011;14425;56.136;40.360;2022-09-30T10:28:54;11.63;;;7.25;;
26486;SDS011;14425;56.136;40.360;2022-09-30T10:31:22;12.57;;;7.82;;
26486;SDS011;14425;56.136;40.360;2022-09-30T10:33:56;10.80;;;7.22;;
26486;SDS011;14425;56.136;40.360;2022-09-30T10:36:28;10.13;;;8.05;;
26486;SDS011;14425;56.136;40.360;2022-09-30T10:38:58;11.65;;;8.27;;
26486;SDS011;14425;56.136;40.360;2022-09-30T10:41:27;8.23;;;6.80;;
26486;SDS011;14425;56.136;40.360;2022-09-30T10:43:59;15.00;;;8.60;;
26486;SDS011;14425;56.136;40.360;2022-09-30T10:46:30;11.10;;;8.10;;
26486;SDS011;14425;56.136;40.360;2022-09-30T10:48:59;12.77;;;7.63;;
26486;SDS011;14425;56.136;40.360;2022-09-30T10:51:34;11.98;;;8.35;;
26486;SDS011;14425;56.136;40.360;2022-09-30T10:54:01;14.05;;;9.20;;
26486;SDS011;14425;56.136;40.360;2022-09-30T10:56:42;12.73;;;8.50;;
26486;SDS011;14425;56.136;40.360;2022-09-30T10:59:18;12.02;;;8.43;;
26486;SDS011;14425;56.136;40.360;2022-09-30T11:02:03;13.05;;;7.72;;
26486;SDS011;14425;56.136;40.360;2022-09-30T11:04:42;9.50;;;8.25;;
26486;SDS011;14425;56.136;40.360;2022-09-30T11:10:24;10.85;;;7.35;;
26486;SDS011;14425;56.136;40.360;2022-09-30T11:15:44;12.25;;;8.02;;
26486;SDS011;14425;56.136;40.360;2022-09-30T11:18:24;10.70;;;8.73;;
26486;SDS011;14425;56.136;40.360;2022-09-30T11:20:56;11.32;;;8.82;;
26486;SDS011;14425;56.136;40.360;2022-09-30T11:23:27;12.52;;;9.20;;
26486;SDS011;14425;56.136;40.360;2022-09-30T11:26:16;13.48;;;9.35;;
26486;SDS011;14425;56.136;40.360;2022-09-30T11:29:02;22.55;;;9.25;;
26486;SDS011;14425;56.136;40.360;2022-09-30T11:31:35;14.52;;;9.25;;
26486;SDS011;14425;56.136;40.360;2022-09-30T11:37:00;13.32;;;9.25;;
26486;SDS011;14425;56.136;40.360;2022-09-30T11:44:50;15.07;;;10.88;;
26486;SDS011;14425;56.136;40.360;2022-09-30T11:47:32;14.43;;;10.18;;
26486;SDS011;14425;56.136;40.360;2022-09-30T11:58:41;16.48;;;9.73;;
26486;SDS011;14425;56.136;40.360;2022-09-30T12:04:14;18.10;;;10.02;;
26486;SDS011;14425;56.136;40.360;2022-09-30T12:06:48;14.07;;;10.57;;
26486;SDS011;14425;56.136;40.360;2022-09-30T12:09:23;15.30;;;9.32;;
26486;SDS011;14425;56.136;40.360;2022-09-30T12:11:59;12.77;;;9.80;;
26486;SDS011;14425;56.136;40.360;2022-09-30T12:17:32;15.90;;;9.18;;
26486;SDS011;14425;56.136;40.360;2022-09-30T12:22:57;13.63;;;9.65;;
26486;SDS011;14425;56.136;40.360;2022-09-30T12:25:30;12.10;;;9.27;;
26486;SDS011;14425;56.136;40.360;2022-09-30T12:28:05;13.77;;;10.23;;
26486;SDS011;14425;56.136;40.360;2022-09-30T12:31:04;15.75;;;10.13;;
26486;SDS011;14425;56.136;40.360;2022-09-30T12:33:41;16.27;;;9.90;;
26486;SDS011;14425;56.136;40.360;2022-09-30T12:42:02;13.25;;;9.40;;
26486;SDS011;14425;56.136;40.360;2022-09-30T12:47:32;11.55;;;8.77;;
26486;SDS011;14425;56.136;40.360;2022-09-30T12:50:12;13.02;;;8.40;;
26486;SDS011;14425;56.136;40.360;2022-09-30T12:52:42;16.23;;;10.23;;
26486;SDS011;14425;56.136;40.360;2022-09-30T12:55:20;13.98;;;9.48;;
26486;SDS011;14425;56.136;40.360;2022-09-30T12:57:50;14.25;;;10.02;;
26486;SDS011;14425;56.136;40.360;2022-09-30T13:00:26;16.80;;;10.35;;
26486;SDS011;14425;56.136;40.360;2022-09-30T13:03:03;13.63;;;9.98;;
26486;SDS011;14425;56.136;40.360;2022-09-30T13:08:08;14.45;;;9.77;;
26486;SDS011;14425;56.136;40.360;2022-09-30T13:13:18;12.18;;;8.60;;
26486;SDS011;14425;56.136;40.360;2022-09-30T13:15:47;15.23;;;9.45;;
26486;SDS011;14425;56.136;40.360;2022-09-30T13:20:48;15.52;;;9.57;;
26486;SDS011;14425;56.136;40.360;2022-09-30T13:28:51;19.27;;;10.50;;
26486;SDS011;14425;56.136;40.360;2022-09-30T13:31:20;18.05;;;10.98;;
26486;SDS011;14425;56.136;40.360;2022-09-30T13:36:40;16.73;;;10.65;;
26486;SDS011;14425;56.136;40.360;2022-09-30T13:39:29;16.67;;;11.65;;
26486;SDS011;14425;56.136;40.360;2022-09-30T13:44:59;19.30;;;12.70;;
26486;SDS011;14425;56.136;40.360;2022-09-30T13:47:39;17.38;;;11.40;;
26486;SDS011;14425;56.136;40.360;2022-09-30T13:50:21;18.42;;;11.38;;
26486;SDS011;14425;56.136;40.360;2022-09-30T13:52:52;17.67;;;11.55;;
26486;SDS011;14425;56.136;40.360;2022-09-30T13:55:27;17.10;;;11.48;;
26486;SDS011;14425;56.136;40.360;2022-09-30T14:01:04;14.23;;;10.77;;
26486;SDS011;14425;56.136;40.360;2022-09-30T14:23:23;18.40;;;11.77;;
26486;SDS011;14425;56.136;40.360;2022-09-30T14:25:55;16.02;;;13.95;;
26486;SDS011;14425;56.136;40.360;2022-09-30T14:28:36;19.35;;;13.60;;
26486;SDS011;14425;56.136;40.360;2022-09-30T14:31:12;18.23;;;12.48;;
26486;SDS011;14425;56.136;40.360;2022-09-30T14:33:39;19.08;;;13.85;;
26486;SDS011;14425;56.136;40.360;2022-09-30T14:36:10;16.70;;;13.32;;
26486;SDS011;14425;56.136;40.360;2022-09-30T14:38:38;18.65;;;13.55;;
26486;SDS011;14425;56.136;40.360;2022-09-30T14:41:13;17.35;;;13.35;;
26486;SDS011;14425;56.136;40.360;2022-09-30T14:43:42;18.73;;;13.45;;
26486;SDS011;14425;56.136;40.360;2022-09-30T14:46:13;17.02;;;13.23;;
26486;SDS011;14425;56.136;40.360;2022-09-30T14:48:50;20.33;;;13.85;;
26486;SDS011;14425;56.136;40.360;2022-09-30T14:51:17;18.08;;;13.05;;
26486;SDS011;14425;56.136;40.360;2022-09-30T14:53:56;18.38;;;12.95;;
26486;SDS011;14425;56.136;40.360;2022-09-30T14:56:28;17.58;;;12.63;;
26486;SDS011;14425;56.136;40.360;2022-09-30T14:58:56;18.40;;;13.32;;
26486;SDS011;14425;56.136;40.360;2022-09-30T15:01:24;19.80;;;12.98;;
26486;SDS011;14425;56.136;40.360;2022-09-30T15:03:59;18.13;;;12.88;;
26486;SDS011;14425;56.136;40.360;2022-09-30T15:06:29;20.77;;;13.80;;
26486;SDS011;14425;56.136;40.360;2022-09-30T15:09:04;18.65;;;13.93;;
26486;SDS011;14425;56.136;40.360;2022-09-30T15:11:32;17.33;;;14.02;;
26486;SDS011;14425;56.136;40.360;2022-09-30T15:14:03;18.30;;;12.52;;
26486;SDS011;14425;56.136;40.360;2022-09-30T15:16:32;18.25;;;12.52;;
26486;SDS011;14425;56.136;40.360;2022-09-30T15:18:58;18.27;;;12.05;;
26486;SDS011;14425;56.136;40.360;2022-09-30T15:21:25;22.23;;;13.27;;
26486;SDS011;14425;56.136;40.360;2022-09-30T15:23:54;17.50;;;11.95;;
26486;SDS011;14425;56.136;40.360;2022-09-30T15:26:22;22.63;;;13.73;;
26486;SDS011;14425;56.136;40.360;2022-09-30T15:28:49;18.42;;;13.23;;
26486;SDS011;14425;56.136;40.360;2022-09-30T15:31:17;24.85;;;15.05;;
26486;SDS011;14425;56.136;40.360;2022-09-30T15:33:46;18.05;;;13.00;;
26486;SDS011;14425;56.136;40.360;2022-09-30T15:36:13;24.15;;;13.52;;
26486;SDS011;14425;56.136;40.360;2022-09-30T15:38:44;21.45;;;13.90;;
26486;SDS011;14425;56.136;40.360;2022-09-30T15:41:14;22.77;;;14.35;;
26486;SDS011;14425;56.136;40.360;2022-09-30T15:43:41;21.48;;;13.88;;
26486;SDS011;14425;56.136;40.360;2022-09-30T15:46:17;20.73;;;14.02;;
26486;SDS011;14425;56.136;40.360;2022-09-30T15:49:00;21.75;;;13.68;;
26486;SDS011;14425;56.136;40.360;2022-09-30T15:51:28;22.00;;;14.60;;
26486;SDS011;14425;56.136;40.360;2022-09-30T15:54:01;18.27;;;14.90;;
26486;SDS011;14425;56.136;40.360;2022-09-30T15:56:47;24.05;;;14.18;;
26486;SDS011;14425;56.136;40.360;2022-09-30T15:59:13;19.25;;;13.02;;
26486;SDS011;14425;56.136;40.360;2022-09-30T16:04:22;21.83;;;13.85;;
26486;SDS011;14425;56.136;40.360;2022-09-30T16:06:55;24.38;;;15.65;;
26486;SDS011;14425;56.136;40.360;2022-09-30T16:09:30;18.48;;;13.80;;
26486;SDS011;14425;56.136;40.360;2022-09-30T16:14:46;17.83;;;13.73;;
26486;SDS011;14425;56.136;40.360;2022-09-30T16:17:30;19.48;;;12.93;;
26486;SDS011;14425;56.136;40.360;2022-09-30T16:19:59;22.13;;;13.18;;
26486;SDS011;14425;56.136;40.360;2022-09-30T16:28:09;17.17;;;12.48;;
26486;SDS011;14425;56.136;40.360;2022-09-30T16:30:40;16.98;;;12.25;;
26486;SDS011;14425;56.136;40.360;2022-09-30T16:33:08;18.60;;;11.90;;
26486;SDS011;14425;56.136;40.360;2022-09-30T16:35:36;18.63;;;12.65;;
26486;SDS011;14425;56.136;40.360;2022-09-30T16:38:04;16.30;;;11.85;;
26486;SDS011;14425;56.136;40.360;2022-09-30T16:40:31;17.80;;;12.10;;
26486;SDS011;14425;56.136;40.360;2022-09-30T16:42:58;16.40;;;12.02;;
26486;SDS011;14425;56.136;40.360;2022-09-30T16:45:24;17.48;;;12.30;;
26486;SDS011;14425;56.136;40.360;2022-09-30T16:47:51;17.50;;;11.95;;
26486;SDS011;14425;56.136;40.360;2022-09-30T16:52:42;18.52;;;11.82;;
26486;SDS011;14425;56.136;40.360;2022-09-30T16:55:07;18.48;;;12.55;;
26486;SDS011;14425;56.136;40.360;2022-09-30T16:57:33;16.13;;;11.80;;
26486;SDS011;14425;56.136;40.360;2022-09-30T16:59:58;15.98;;;10.90;;
26486;SDS011;14425;56.136;40.360;2022-09-30T17:02:24;17.55;;;12.15;;
26486;SDS011;14425;56.136;40.360;2022-09-30T17:04:50;17.23;;;12.10;;
26486;SDS011;14425;56.136;40.360;2022-09-30T17:07:15;17.40;;;11.95;;
26486;SDS011;14425;56.136;40.360;2022-09-30T17:09:41;14.98;;;11.15;;
26486;SDS011;14425;56.136;40.360;2022-09-30T17:12:07;18.33;;;12.45;;
26486;SDS011;14425;56.136;40.360;2022-09-30T17:14:35;17.45;;;11.95;;
26486;SDS011;14425;56.136;40.360;2022-09-30T17:17:01;16.98;;;11.63;;
26486;SDS011;14425;56.136;40.360;2022-09-30T17:19:26;15.82;;;11.90;;
26486;SDS011;14425;56.136;40.360;2022-09-30T17:21:54;15.48;;;10.38;;
26486;SDS011;14425;56.136;40.360;2022-09-30T17:24:19;19.60;;;10.38;;
26486;SDS011;14425;56.136;40.360;2022-09-30T17:26:45;15.50;;;10.13;;
26486;SDS011;14425;56.136;40.360;2022-09-30T17:29:11;19.95;;;10.30;;
26486;SDS011;14425;56.136;40.360;2022-09-30T17:31:36;17.38;;;11.50;;
26486;SDS011;14425;56.136;40.360;2022-09-30T17:34:05;18.35;;;10.77;;
26486;SDS011;14425;56.136;40.360;2022-09-30T17:36:32;14.73;;;9.52;;
26486;SDS011;14425;56.136;40.360;2022-09-30T17:38:59;14.68;;;9.45;;
26486;SDS011;14425;56.136;40.360;2022-09-30T17:41:25;13.82;;;9.80;;
26486;SDS011;14425;56.136;40.360;2022-09-30T17:44:09;13.70;;;9.50;;
26486;SDS011;14425;56.136;40.360;2022-09-30T17:46:42;15.02;;;9.98;;